sensor_id;sensor_type;location;lat;lon;timestamp;temperature;humidity
12602;DHT22;30282;16.436;99.370;2023-02-12T00:01:56;22.00;99.90
12602;DHT22;30282;16.436;99.370;2023-02-12T00:04:29;22.00;99.90
12602;DHT22;30282;16.436;99.370;2023-02-12T00:06:59;22.00;99.90
12602;DHT22;30282;16.436;99.370;2023-02-12T00:09:27;22.00;99.90
12602;DHT22;30282;16.436;99.370;2023-02-12T00:11:56;22.10;99.90
12602;DHT22;30282;16.436;99.370;2023-02-12T00:14:25;22.10;99.90
12602;DHT22;30282;16.436;99.370;2023-02-12T00:16:54;22.10;99.90
12602;DHT22;30282;16.436;99.370;2023-02-12T00:19:23;22.10;99.90
12602;DHT22;30282;16.436;99.370;2023-02-12T00:21:54;22.10;99.90
12602;DHT22;30282;16.436;99.370;2023-02-12T00:24:23;21.90;99.90
12602;DHT22;30282;16.436;99.370;2023-02-12T00:26:53;22.00;99.90
12602;DHT22;30282;16.436;99.370;2023-02-12T00:29:22;22.10;99.90
12602;DHT22;30282;16.436;99.370;2023-02-12T00:31:51;22.20;99.90
12602;DHT22;30282;16.436;99.370;2023-02-12T00:34:20;22.30;99.90
12602;DHT22;30282;16.436;99.370;2023-02-12T00:36:49;22.40;99.90
12602;DHT22;30282;16.436;99.370;2023-02-12T00:39:20;22.50;99.90
12602;DHT22;30282;16.436;99.370;2023-02-12T00:41:49;22.60;99.90
12602;DHT22;30282;16.436;99.370;2023-02-12T00:44:18;22.60;99.90
12602;DHT22;30282;16.436;99.370;2023-02-12T00:46:47;22.70;99.90
12602;DHT22;30282;16.436;99.370;2023-02-12T00:49:16;22.80;99.90
12602;DHT22;30282;16.436;99.370;2023-02-12T00:51:46;22.80;99.90
12602;DHT22;30282;16.436;99.370;2023-02-12T00:54:15;22.90;99.90
12602;DHT22;30282;16.436;99.370;2023-02-12T00:56:45;23.00;99.90
12602;DHT22;30282;16.436;99.370;2023-02-12T00:59:14;23.10;99.90
12602;DHT22;30282;16.436;99.370;2023-02-12T01:01:43;23.30;99.90
12602;DHT22;30282;16.436;99.370;2023-02-12T01:04:12;23.40;99.90
12602;DHT22;30282;16.436;99.370;2023-02-12T01:06:41;23.50;99.90
12602;DHT22;30282;16.436;99.370;2023-02-12T01:09:10;23.60;99.90
12602;DHT22;30282;16.436;99.370;2023-02-12T01:11:40;23.80;99.90
12602;DHT22;30282;16.436;99.370;2023-02-12T01:14:10;24.00;99.90
12602;DHT22;30282;16.436;99.370;2023-02-12T01:16:39;24.10;99.90
12602;DHT22;30282;16.436;99.370;2023-02-12T01:19:11;24.20;99.90
12602;DHT22;30282;16.436;99.370;2023-02-12T01:21:40;24.40;99.90
12602;DHT22;30282;16.436;99.370;2023-02-12T01:24:09;24.50;99.90
12602;DHT22;30282;16.436;99.370;2023-02-12T01:26:38;24.60;99.90
12602;DHT22;30282;16.436;99.370;2023-02-12T01:29:09;24.80;99.90
12602;DHT22;30282;16.436;99.370;2023-02-12T01:31:38;24.90;99.90
12602;DHT22;30282;16.436;99.370;2023-02-12T01:34:08;25.00;99.90
12602;DHT22;30282;16.436;99.370;2023-02-12T01:36:38;25.10;99.90
12602;DHT22;30282;16.436;99.370;2023-02-12T01:39:07;25.20;99.90
12602;DHT22;30282;16.436;99.370;2023-02-12T01:41:39;25.40;99.90
12602;DHT22;30282;16.436;99.370;2023-02-12T01:44:14;25.40;99.90
12602;DHT22;30282;16.436;99.370;2023-02-12T01:46:44;25.60;99.90
12602;DHT22;30282;16.436;99.370;2023-02-12T01:49:16;25.80;99.90
12602;DHT22;30282;16.436;99.370;2023-02-12T01:51:47;26.00;99.90
12602;DHT22;30282;16.436;99.370;2023-02-12T01:54:20;26.00;99.90
12602;DHT22;30282;16.436;99.370;2023-02-12T01:56:57;26.20;99.90
12602;DHT22;30282;16.436;99.370;2023-02-12T01:59:32;26.10;99.90
12602;DHT22;30282;16.436;99.370;2023-02-12T02:02:03;26.30;99.90
12602;DHT22;30282;16.436;99.370;2023-02-12T02:04:35;26.20;99.90
12602;DHT22;30282;16.436;99.370;2023-02-12T02:07:07;26.30;99.90
12602;DHT22;30282;16.436;99.370;2023-02-12T02:09:37;26.40;99.90
12602;DHT22;30282;16.436;99.370;2023-02-12T02:12:07;26.60;99.90
12602;DHT22;30282;16.436;99.370;2023-02-12T02:14:57;26.80;99.90
12602;DHT22;30282;16.436;99.370;2023-02-12T02:17:49;27.00;99.90
12602;DHT22;30282;16.436;99.370;2023-02-12T02:20:55;27.10;99.90
12602;DHT22;30282;16.436;99.370;2023-02-12T02:23:44;27.30;99.90
12602;DHT22;30282;16.436;99.370;2023-02-12T02:26:28;27.50;99.90
12602;DHT22;30282;16.436;99.370;2023-02-12T02:29:20;27.70;99.90
12602;DHT22;30282;16.436;99.370;2023-02-12T02:31:59;27.80;99.90
12602;DHT22;30282;16.436;99.370;2023-02-12T02:34:37;27.90;99.90
12602;DHT22;30282;16.436;99.370;2023-02-12T02:37:13;27.90;99.90
12602;DHT22;30282;16.436;99.370;2023-02-12T02:39:48;28.00;99.90
12602;DHT22;30282;16.436;99.370;2023-02-12T02:42:23;28.10;99.90
12602;DHT22;30282;16.436;99.370;2023-02-12T02:44:58;28.20;99.90
12602;DHT22;30282;16.436;99.370;2023-02-12T02:47:33;28.30;99.90
12602;DHT22;30282;16.436;99.370;2023-02-12T02:50:08;28.40;99.90
12602;DHT22;30282;16.436;99.370;2023-02-12T02:52:40;28.50;99.90
12602;DHT22;30282;16.436;99.370;2023-02-12T02:55:13;28.50;99.90
12602;DHT22;30282;16.436;99.370;2023-02-12T02:57:47;28.60;99.90
12602;DHT22;30282;16.436;99.370;2023-02-12T03:00:20;28.70;99.90
12602;DHT22;30282;16.436;99.370;2023-02-12T03:02:54;28.80;99.90
12602;DHT22;30282;16.436;99.370;2023-02-12T03:05:27;28.90;99.90
12602;DHT22;30282;16.436;99.370;2023-02-12T03:08:02;29.20;99.90
12602;DHT22;30282;16.436;99.370;2023-02-12T03:10:36;29.30;99.90
12602;DHT22;30282;16.436;99.370;2023-02-12T03:13:10;29.40;99.90
12602;DHT22;30282;16.436;99.370;2023-02-12T03:15:42;29.50;99.90
12602;DHT22;30282;16.436;99.370;2023-02-12T03:18:19;29.60;99.90
12602;DHT22;30282;16.436;99.370;2023-02-12T03:20:52;29.70;99.90
12602;DHT22;30282;16.436;99.370;2023-02-12T03:23:25;29.70;99.90
12602;DHT22;30282;16.436;99.370;2023-02-12T03:25:57;29.90;99.90
12602;DHT22;30282;16.436;99.370;2023-02-12T03:28:29;29.90;99.90
12602;DHT22;30282;16.436;99.370;2023-02-12T03:31:04;30.00;99.90
12602;DHT22;30282;16.436;99.370;2023-02-12T03:33:44;30.10;99.90
12602;DHT22;30282;16.436;99.370;2023-02-12T03:36:25;30.20;99.90
12602;DHT22;30282;16.436;99.370;2023-02-12T03:39:04;30.40;99.90
12602;DHT22;30282;16.436;99.370;2023-02-12T03:41:40;30.60;99.90
12602;DHT22;30282;16.436;99.370;2023-02-12T03:44:15;30.60;99.90
12602;DHT22;30282;16.436;99.370;2023-02-12T03:46:54;30.80;99.90
12602;DHT22;30282;16.436;99.370;2023-02-12T03:49:32;30.80;99.90
12602;DHT22;30282;16.436;99.370;2023-02-12T03:52:03;30.80;99.90
12602;DHT22;30282;16.436;99.370;2023-02-12T03:54:33;31.00;99.90
12602;DHT22;30282;16.436;99.370;2023-02-12T03:57:07;30.90;99.90
12602;DHT22;30282;16.436;99.370;2023-02-12T03:59:39;31.10;99.90
12602;DHT22;30282;16.436;99.370;2023-02-12T04:02:10;31.20;99.90
12602;DHT22;30282;16.436;99.370;2023-02-12T04:04:43;31.30;99.90
12602;DHT22;30282;16.436;99.370;2023-02-12T04:07:18;31.60;99.90
12602;DHT22;30282;16.436;99.370;2023-02-12T04:09:49;31.80;99.90
12602;DHT22;30282;16.436;99.370;2023-02-12T04:12:38;32.10;99.90
12602;DHT22;30282;16.436;99.370;2023-02-12T04:18:08;32.50;99.90
12602;DHT22;30282;16.436;99.370;2023-02-12T04:20:50;32.60;99.90
12602;DHT22;30282;16.436;99.370;2023-02-12T04:23:36;32.60;99.90
12602;DHT22;30282;16.436;99.370;2023-02-12T04:26:13;32.70;99.90
12602;DHT22;30282;16.436;99.370;2023-02-12T04:28:51;33.00;99.90
12602;DHT22;30282;16.436;99.370;2023-02-12T04:31:30;33.00;99.90
12602;DHT22;30282;16.436;99.370;2023-02-12T04:34:11;33.00;99.90
12602;DHT22;30282;16.436;99.370;2023-02-12T04:36:48;33.00;99.90
12602;DHT22;30282;16.436;99.370;2023-02-12T04:39:21;33.30;99.90
12602;DHT22;30282;16.436;99.370;2023-02-12T04:41:52;33.50;99.90
12602;DHT22;30282;16.436;99.370;2023-02-12T04:44:23;33.60;99.90
12602;DHT22;30282;16.436;99.370;2023-02-12T04:46:52;33.70;99.90
12602;DHT22;30282;16.436;99.370;2023-02-12T04:49:22;33.80;99.90
12602;DHT22;30282;16.436;99.370;2023-02-12T04:51:53;33.80;99.90
12602;DHT22;30282;16.436;99.370;2023-02-12T04:54:23;33.90;99.90
12602;DHT22;30282;16.436;99.370;2023-02-12T04:56:52;34.10;99.90
12602;DHT22;30282;16.436;99.370;2023-02-12T04:59:21;34.30;99.90
12602;DHT22;30282;16.436;99.370;2023-02-12T05:01:50;34.40;99.90
12602;DHT22;30282;16.436;99.370;2023-02-12T05:04:19;34.60;99.90
12602;DHT22;30282;16.436;99.370;2023-02-12T05:06:48;34.70;99.90
12602;DHT22;30282;16.436;99.370;2023-02-12T05:09:20;34.70;99.90
12602;DHT22;30282;16.436;99.370;2023-02-12T05:11:48;34.80;99.90
12602;DHT22;30282;16.436;99.370;2023-02-12T05:14:17;34.80;99.90
12602;DHT22;30282;16.436;99.370;2023-02-12T05:16:46;35.00;99.90
12602;DHT22;30282;16.436;99.370;2023-02-12T05:19:15;35.20;99.90
12602;DHT22;30282;16.436;99.370;2023-02-12T05:21:44;35.30;99.90
12602;DHT22;30282;16.436;99.370;2023-02-12T05:24:13;35.40;99.90
12602;DHT22;30282;16.436;99.370;2023-02-12T05:26:44;35.50;99.90
12602;DHT22;30282;16.436;99.370;2023-02-12T05:29:13;35.60;99.90
12602;DHT22;30282;16.436;99.370;2023-02-12T05:31:42;35.80;99.90
12602;DHT22;30282;16.436;99.370;2023-02-12T05:34:12;35.80;99.90
12602;DHT22;30282;16.436;99.370;2023-02-12T05:36:41;35.60;99.90
12602;DHT22;30282;16.436;99.370;2023-02-12T05:39:10;35.40;99.90
12602;DHT22;30282;16.436;99.370;2023-02-12T05:41:39;35.30;99.90
12602;DHT22;30282;16.436;99.370;2023-02-12T05:44:10;35.50;99.90
12602;DHT22;30282;16.436;99.370;2023-02-12T05:46:41;35.40;99.90
12602;DHT22;30282;16.436;99.370;2023-02-12T05:49:10;35.40;99.90
12602;DHT22;30282;16.436;99.370;2023-02-12T05:51:42;35.50;99.90
12602;DHT22;30282;16.436;99.370;2023-02-12T05:54:11;35.60;99.90
12602;DHT22;30282;16.436;99.370;2023-02-12T05:56:43;35.70;99.90
12602;DHT22;30282;16.436;99.370;2023-02-12T05:59:15;35.90;99.90
12602;DHT22;30282;16.436;99.370;2023-02-12T06:01:46;36.10;99.90
12602;DHT22;30282;16.436;99.370;2023-02-12T06:04:21;36.00;99.90
12602;DHT22;30282;16.436;99.370;2023-02-12T06:06:51;35.90;99.90
12602;DHT22;30282;16.436;99.370;2023-02-12T06:09:25;36.00;99.90
12602;DHT22;30282;16.436;99.370;2023-02-12T06:11:54;36.10;99.90
12602;DHT22;30282;16.436;99.370;2023-02-12T06:14:24;36.00;99.90
12602;DHT22;30282;16.436;99.370;2023-02-12T06:16:53;36.00;99.90
12602;DHT22;30282;16.436;99.370;2023-02-12T06:19:22;36.00;99.90
12602;DHT22;30282;16.436;99.370;2023-02-12T06:21:51;36.10;99.90
12602;DHT22;30282;16.436;99.370;2023-02-12T06:24:20;36.00;99.90
12602;DHT22;30282;16.436;99.370;2023-02-12T06:26:50;36.10;99.90
12602;DHT22;30282;16.436;99.370;2023-02-12T06:29:19;36.10;99.90
12602;DHT22;30282;16.436;99.370;2023-02-12T06:31:50;36.10;99.90
12602;DHT22;30282;16.436;99.370;2023-02-12T06:34:19;36.00;99.90
12602;DHT22;30282;16.436;99.370;2023-02-12T06:36:48;35.90;99.90
12602;DHT22;30282;16.436;99.370;2023-02-12T06:39:17;35.90;99.90
12602;DHT22;30282;16.436;99.370;2023-02-12T06:41:46;35.90;99.90
12602;DHT22;30282;16.436;99.370;2023-02-12T06:44:15;35.90;99.90
12602;DHT22;30282;16.436;99.370;2023-02-12T06:46:44;36.10;99.90
12602;DHT22;30282;16.436;99.370;2023-02-12T06:49:15;36.00;99.90
12602;DHT22;30282;16.436;99.370;2023-02-12T06:51:44;36.00;99.90
12602;DHT22;30282;16.436;99.370;2023-02-12T06:54:14;35.90;99.90
12602;DHT22;30282;16.436;99.370;2023-02-12T06:56:43;35.70;99.90
12602;DHT22;30282;16.436;99.370;2023-02-12T06:59:14;35.70;99.90
12602;DHT22;30282;16.436;99.370;2023-02-12T07:01:43;35.80;99.90
12602;DHT22;30282;16.436;99.370;2023-02-12T07:04:14;35.80;99.90
12602;DHT22;30282;16.436;99.370;2023-02-12T07:06:43;35.90;99.90
12602;DHT22;30282;16.436;99.370;2023-02-12T07:09:12;36.00;99.90
12602;DHT22;30282;16.436;99.370;2023-02-12T07:11:41;36.00;99.90
12602;DHT22;30282;16.436;99.370;2023-02-12T07:14:13;36.00;99.90
12602;DHT22;30282;16.436;99.370;2023-02-12T07:16:43;36.10;99.90
12602;DHT22;30282;16.436;99.370;2023-02-12T07:19:14;36.10;99.90
12602;DHT22;30282;16.436;99.370;2023-02-12T07:21:46;35.90;99.90
12602;DHT22;30282;16.436;99.370;2023-02-12T07:24:15;35.80;99.90
12602;DHT22;30282;16.436;99.370;2023-02-12T07:26:45;35.80;99.90
12602;DHT22;30282;16.436;99.370;2023-02-12T07:29:14;35.80;99.90
12602;DHT22;30282;16.436;99.370;2023-02-12T07:31:43;35.80;99.90
12602;DHT22;30282;16.436;99.370;2023-02-12T07:34:14;35.80;99.90
12602;DHT22;30282;16.436;99.370;2023-02-12T07:36:43;35.70;99.90
12602;DHT22;30282;16.436;99.370;2023-02-12T07:39:15;35.80;99.90
12602;DHT22;30282;16.436;99.370;2023-02-12T07:41:45;35.90;99.90
12602;DHT22;30282;16.436;99.370;2023-02-12T07:44:14;35.90;99.90
12602;DHT22;30282;16.436;99.370;2023-02-12T07:46:44;35.90;99.90
12602;DHT22;30282;16.436;99.370;2023-02-12T07:49:16;35.80;99.90
12602;DHT22;30282;16.436;99.370;2023-02-12T07:51:45;35.90;99.90
12602;DHT22;30282;16.436;99.370;2023-02-12T07:54:15;35.90;99.90
12602;DHT22;30282;16.436;99.370;2023-02-12T07:56:44;35.70;99.90
12602;DHT22;30282;16.436;99.370;2023-02-12T07:59:15;35.80;99.90
12602;DHT22;30282;16.436;99.370;2023-02-12T08:01:46;35.80;99.90
12602;DHT22;30282;16.436;99.370;2023-02-12T08:04:18;35.90;99.90
12602;DHT22;30282;16.436;99.370;2023-02-12T08:06:49;35.90;99.90
12602;DHT22;30282;16.436;99.370;2023-02-12T08:09:20;35.90;99.90
12602;DHT22;30282;16.436;99.370;2023-02-12T08:11:50;35.90;99.90
12602;DHT22;30282;16.436;99.370;2023-02-12T08:14:22;35.90;99.90
12602;DHT22;30282;16.436;99.370;2023-02-12T08:16:51;35.90;99.90
12602;DHT22;30282;16.436;99.370;2023-02-12T08:19:22;35.80;99.90
12602;DHT22;30282;16.436;99.370;2023-02-12T08:21:52;35.80;99.90
12602;DHT22;30282;16.436;99.370;2023-02-12T08:24:21;35.80;99.90
12602;DHT22;30282;16.436;99.370;2023-02-12T08:26:50;35.80;99.90
12602;DHT22;30282;16.436;99.370;2023-02-12T08:29:21;35.70;99.90
12602;DHT22;30282;16.436;99.370;2023-02-12T08:31:54;35.70;99.90
12602;DHT22;30282;16.436;99.370;2023-02-12T08:34:26;35.80;99.90
12602;DHT22;30282;16.436;99.370;2023-02-12T08:36:56;35.80;99.90
12602;DHT22;30282;16.436;99.370;2023-02-12T08:39:27;35.70;99.90
12602;DHT22;30282;16.436;99.370;2023-02-12T08:41:57;35.80;99.90
12602;DHT22;30282;16.436;99.370;2023-02-12T08:44:26;35.80;99.90
12602;DHT22;30282;16.436;99.370;2023-02-12T08:46:55;35.80;99.90
12602;DHT22;30282;16.436;99.370;2023-02-12T08:49:27;35.80;99.90
12602;DHT22;30282;16.436;99.370;2023-02-12T08:51:57;35.80;99.90
12602;DHT22;30282;16.436;99.370;2023-02-12T08:54:29;35.60;99.90
12602;DHT22;30282;16.436;99.370;2023-02-12T08:56:59;35.70;99.90
12602;DHT22;30282;16.436;99.370;2023-02-12T08:59:28;35.60;99.90
12602;DHT22;30282;16.436;99.370;2023-02-12T09:02:05;35.60;99.90
12602;DHT22;30282;16.436;99.370;2023-02-12T09:04:36;35.50;99.90
12602;DHT22;30282;16.436;99.370;2023-02-12T09:07:05;35.50;99.90
12602;DHT22;30282;16.436;99.370;2023-02-12T09:09:34;35.60;99.90
12602;DHT22;30282;16.436;99.370;2023-02-12T09:12:04;35.60;99.90
12602;DHT22;30282;16.436;99.370;2023-02-12T09:14:33;35.50;99.90
12602;DHT22;30282;16.436;99.370;2023-02-12T09:17:02;35.50;99.90
12602;DHT22;30282;16.436;99.370;2023-02-12T09:19:31;35.50;99.90
12602;DHT22;30282;16.436;99.370;2023-02-12T09:22:01;35.50;99.90
12602;DHT22;30282;16.436;99.370;2023-02-12T09:24:31;35.50;99.90
12602;DHT22;30282;16.436;99.370;2023-02-12T09:27:00;35.50;99.90
12602;DHT22;30282;16.436;99.370;2023-02-12T09:29:29;35.40;99.90
12602;DHT22;30282;16.436;99.370;2023-02-12T09:31:58;35.40;99.90
12602;DHT22;30282;16.436;99.370;2023-02-12T09:34:28;35.40;99.90
12602;DHT22;30282;16.436;99.370;2023-02-12T09:36:57;35.30;99.90
12602;DHT22;30282;16.436;99.370;2023-02-12T09:39:27;35.20;99.90
12602;DHT22;30282;16.436;99.370;2023-02-12T09:42:19;35.20;99.90
12602;DHT22;30282;16.436;99.370;2023-02-12T09:44:57;35.10;99.90
12602;DHT22;30282;16.436;99.370;2023-02-12T09:47:34;35.10;99.90
12602;DHT22;30282;16.436;99.370;2023-02-12T09:50:17;35.10;99.90
12602;DHT22;30282;16.436;99.370;2023-02-12T09:52:48;35.00;99.90
12602;DHT22;30282;16.436;99.370;2023-02-12T09:55:20;34.90;99.90
12602;DHT22;30282;16.436;99.370;2023-02-12T09:57:53;34.90;99.90
12602;DHT22;30282;16.436;99.370;2023-02-12T10:00:24;34.80;99.90
12602;DHT22;30282;16.436;99.370;2023-02-12T10:02:59;34.70;99.90
12602;DHT22;30282;16.436;99.370;2023-02-12T10:05:30;34.70;99.90
12602;DHT22;30282;16.436;99.370;2023-02-12T10:08:25;34.60;99.90
12602;DHT22;30282;16.436;99.370;2023-02-12T10:11:05;34.50;99.90
12602;DHT22;30282;16.436;99.370;2023-02-12T10:13:45;34.50;99.90
12602;DHT22;30282;16.436;99.370;2023-02-12T10:16:33;34.40;99.90
12602;DHT22;30282;16.436;99.370;2023-02-12T10:19:18;34.40;99.90
12602;DHT22;30282;16.436;99.370;2023-02-12T10:21:59;34.40;99.90
12602;DHT22;30282;16.436;99.370;2023-02-12T10:24:53;34.30;99.90
12602;DHT22;30282;16.436;99.370;2023-02-12T10:27:37;34.20;99.90
12602;DHT22;30282;16.436;99.370;2023-02-12T10:30:19;34.10;99.90
12602;DHT22;30282;16.436;99.370;2023-02-12T10:32:53;34.00;99.90
12602;DHT22;30282;16.436;99.370;2023-02-12T10:35:23;33.90;99.90
12602;DHT22;30282;16.436;99.370;2023-02-12T10:37:56;33.80;99.90
12602;DHT22;30282;16.436;99.370;2023-02-12T10:40:27;33.80;99.90
12602;DHT22;30282;16.436;99.370;2023-02-12T10:43:00;33.70;99.90
12602;DHT22;30282;16.436;99.370;2023-02-12T10:45:32;33.60;99.90
12602;DHT22;30282;16.436;99.370;2023-02-12T10:48:07;33.50;99.90
12602;DHT22;30282;16.436;99.370;2023-02-12T10:50:45;33.40;99.90
12602;DHT22;30282;16.436;99.370;2023-02-12T10:53:20;33.30;99.90
12602;DHT22;30282;16.436;99.370;2023-02-12T10:56:10;33.20;99.90
12602;DHT22;30282;16.436;99.370;2023-02-12T10:58:51;33.10;99.90
12602;DHT22;30282;16.436;99.370;2023-02-12T11:01:22;33.00;99.90
12602;DHT22;30282;16.436;99.370;2023-02-12T11:03:54;32.90;99.90
12602;DHT22;30282;16.436;99.370;2023-02-12T11:06:24;32.80;99.90
12602;DHT22;30282;16.436;99.370;2023-02-12T11:08:54;32.70;99.90
12602;DHT22;30282;16.436;99.370;2023-02-12T11:11:25;32.60;99.90
12602;DHT22;30282;16.436;99.370;2023-02-12T11:13:59;32.40;99.90
12602;DHT22;30282;16.436;99.370;2023-02-12T11:16:31;32.40;99.90
12602;DHT22;30282;16.436;99.370;2023-02-12T11:19:03;32.40;99.90
12602;DHT22;30282;16.436;99.370;2023-02-12T11:21:32;32.30;99.90
12602;DHT22;30282;16.436;99.370;2023-02-12T11:24:21;32.20;99.90
12602;DHT22;30282;16.436;99.370;2023-02-12T11:26:50;32.20;99.90
12602;DHT22;30282;16.436;99.370;2023-02-12T11:29:22;32.20;99.90
12602;DHT22;30282;16.436;99.370;2023-02-12T11:32:02;32.20;99.90
12602;DHT22;30282;16.436;99.370;2023-02-12T11:34:31;32.20;99.90
12602;DHT22;30282;16.436;99.370;2023-02-12T11:37:00;32.10;99.90
12602;DHT22;30282;16.436;99.370;2023-02-12T11:39:33;32.00;99.90
12602;DHT22;30282;16.436;99.370;2023-02-12T11:42:05;32.00;99.90
12602;DHT22;30282;16.436;99.370;2023-02-12T11:44:47;31.90;99.90
12602;DHT22;30282;16.436;99.370;2023-02-12T11:47:22;31.90;99.90
12602;DHT22;30282;16.436;99.370;2023-02-12T11:50:01;31.90;99.90
12602;DHT22;30282;16.436;99.370;2023-02-12T11:52:34;31.80;99.90
12602;DHT22;30282;16.436;99.370;2023-02-12T11:55:05;31.70;99.90
12602;DHT22;30282;16.436;99.370;2023-02-12T11:57:36;31.60;99.90
12602;DHT22;30282;16.436;99.370;2023-02-12T12:00:13;31.60;99.90
12602;DHT22;30282;16.436;99.370;2023-02-12T12:02:46;31.60;99.90
12602;DHT22;30282;16.436;99.370;2023-02-12T12:05:19;31.60;99.90
12602;DHT22;30282;16.436;99.370;2023-02-12T12:07:51;31.60;99.90
12602;DHT22;30282;16.436;99.370;2023-02-12T12:10:35;31.60;99.90
12602;DHT22;30282;16.436;99.370;2023-02-12T12:13:10;31.40;99.90
12602;DHT22;30282;16.436;99.370;2023-02-12T12:15:45;31.30;99.90
12602;DHT22;30282;16.436;99.370;2023-02-12T12:18:36;31.20;99.90
12602;DHT22;30282;16.436;99.370;2023-02-12T12:21:29;31.10;99.90
12602;DHT22;30282;16.436;99.370;2023-02-12T12:24:05;31.20;99.90
12602;DHT22;30282;16.436;99.370;2023-02-12T12:26:40;31.20;99.90
12602;DHT22;30282;16.436;99.370;2023-02-12T12:29:17;31.30;99.90
12602;DHT22;30282;16.436;99.370;2023-02-12T12:31:52;31.30;99.90
12602;DHT22;30282;16.436;99.370;2023-02-12T12:34:24;31.20;99.90
12602;DHT22;30282;16.436;99.370;2023-02-12T12:37:26;31.20;99.90
12602;DHT22;30282;16.436;99.370;2023-02-12T12:40:17;31.10;99.90
12602;DHT22;30282;16.436;99.370;2023-02-12T12:43:01;31.10;99.90
12602;DHT22;30282;16.436;99.370;2023-02-12T12:46:03;31.00;99.90
12602;DHT22;30282;16.436;99.370;2023-02-12T12:51:41;31.00;99.90
12602;DHT22;30282;16.436;99.370;2023-02-12T12:54:23;30.80;99.90
12602;DHT22;30282;16.436;99.370;2023-02-12T12:57:00;30.70;99.90
12602;DHT22;30282;16.436;99.370;2023-02-12T12:59:51;30.70;99.90
12602;DHT22;30282;16.436;99.370;2023-02-12T13:02:57;30.60;99.90
12602;DHT22;30282;16.436;99.370;2023-02-12T13:11:38;30.50;99.90
12602;DHT22;30282;16.436;99.370;2023-02-12T13:14:34;30.50;99.90
12602;DHT22;30282;16.436;99.370;2023-02-12T13:17:10;30.50;99.90
12602;DHT22;30282;16.436;99.370;2023-02-12T13:19:55;30.50;99.90
12602;DHT22;30282;16.436;99.370;2023-02-12T13:22:30;30.50;99.90
12602;DHT22;30282;16.436;99.370;2023-02-12T13:25:14;30.40;99.90
12602;DHT22;30282;16.436;99.370;2023-02-12T13:27:47;30.30;99.90
12602;DHT22;30282;16.436;99.370;2023-02-12T13:30:21;30.20;99.90
12602;DHT22;30282;16.436;99.370;2023-02-12T13:32:59;30.20;99.90
12602;DHT22;30282;16.436;99.370;2023-02-12T13:35:30;30.20;99.90
12602;DHT22;30282;16.436;99.370;2023-02-12T13:38:00;30.20;99.90
12602;DHT22;30282;16.436;99.370;2023-02-12T13:40:32;30.20;99.90
12602;DHT22;30282;16.436;99.370;2023-02-12T13:43:10;30.20;99.90
12602;DHT22;30282;16.436;99.370;2023-02-12T13:45:49;30.20;99.90
12602;DHT22;30282;16.436;99.370;2023-02-12T13:48:32;30.30;99.90
12602;DHT22;30282;16.436;99.370;2023-02-12T13:51:09;30.30;99.90
12602;DHT22;30282;16.436;99.370;2023-02-12T13:53:50;30.30;99.90
12602;DHT22;30282;16.436;99.370;2023-02-12T13:56:32;30.30;99.90
12602;DHT22;30282;16.436;99.370;2023-02-12T13:59:02;30.30;99.90
12602;DHT22;30282;16.436;99.370;2023-02-12T14:01:43;30.30;99.90
12602;DHT22;30282;16.436;99.370;2023-02-12T14:04:28;30.20;99.90
12602;DHT22;30282;16.436;99.370;2023-02-12T14:07:02;30.20;99.90
12602;DHT22;30282;16.436;99.370;2023-02-12T14:09:40;30.20;99.90
12602;DHT22;30282;16.436;99.370;2023-02-12T14:12:14;30.20;99.90
12602;DHT22;30282;16.436;99.370;2023-02-12T14:14:45;30.20;99.90
12602;DHT22;30282;16.436;99.370;2023-02-12T14:17:39;30.10;99.90
12602;DHT22;30282;16.436;99.370;2023-02-12T14:20:25;30.10;99.90
12602;DHT22;30282;16.436;99.370;2023-02-12T14:23:18;30.00;99.90
12602;DHT22;30282;16.436;99.370;2023-02-12T14:25:56;30.00;99.90
12602;DHT22;30282;16.436;99.370;2023-02-12T14:28:39;30.00;99.90
12602;DHT22;30282;16.436;99.370;2023-02-12T14:31:40;29.90;99.90
12602;DHT22;30282;16.436;99.370;2023-02-12T14:34:38;29.80;99.90
12602;DHT22;30282;16.436;99.370;2023-02-12T14:37:15;29.80;99.90
12602;DHT22;30282;16.436;99.370;2023-02-12T14:39:45;29.70;99.90
12602;DHT22;30282;16.436;99.370;2023-02-12T14:42:41;29.70;99.90
12602;DHT22;30282;16.436;99.370;2023-02-12T14:45:27;29.50;99.90
12602;DHT22;30282;16.436;99.370;2023-02-12T14:47:57;29.40;99.90
12602;DHT22;30282;16.436;99.370;2023-02-12T14:50:34;29.20;99.90
12602;DHT22;30282;16.436;99.370;2023-02-12T14:53:12;29.10;99.90
12602;DHT22;30282;16.436;99.370;2023-02-12T14:55:46;29.10;99.90
12602;DHT22;30282;16.436;99.370;2023-02-12T14:58:18;29.00;99.90
12602;DHT22;30282;16.436;99.370;2023-02-12T15:00:51;29.00;99.90
12602;DHT22;30282;16.436;99.370;2023-02-12T15:03:31;29.00;99.90
12602;DHT22;30282;16.436;99.370;2023-02-12T15:06:06;28.80;99.90
12602;DHT22;30282;16.436;99.370;2023-02-12T15:08:42;28.60;99.90
12602;DHT22;30282;16.436;99.370;2023-02-12T15:11:21;28.40;99.90
12602;DHT22;30282;16.436;99.370;2023-02-12T15:13:56;28.30;99.90
12602;DHT22;30282;16.436;99.370;2023-02-12T15:16:34;28.10;99.90
12602;DHT22;30282;16.436;99.370;2023-02-12T15:19:16;27.90;99.90
12602;DHT22;30282;16.436;99.370;2023-02-12T15:21:48;27.70;99.90
12602;DHT22;30282;16.436;99.370;2023-02-12T15:24:21;27.60;99.90
12602;DHT22;30282;16.436;99.370;2023-02-12T15:26:52;27.60;99.90
12602;DHT22;30282;16.436;99.370;2023-02-12T15:29:24;27.70;99.90
12602;DHT22;30282;16.436;99.370;2023-02-12T15:31:58;27.70;99.90
12602;DHT22;30282;16.436;99.370;2023-02-12T15:34:30;27.70;99.90
12602;DHT22;30282;16.436;99.370;2023-02-12T15:37:01;27.70;99.90
12602;DHT22;30282;16.436;99.370;2023-02-12T15:39:37;27.80;99.90
12602;DHT22;30282;16.436;99.370;2023-02-12T15:42:24;27.80;99.90
12602;DHT22;30282;16.436;99.370;2023-02-12T15:45:02;27.80;99.90
12602;DHT22;30282;16.436;99.370;2023-02-12T15:47:35;27.70;99.90
12602;DHT22;30282;16.436;99.370;2023-02-12T15:50:04;27.60;99.90
12602;DHT22;30282;16.436;99.370;2023-02-12T15:52:35;27.60;99.90
12602;DHT22;30282;16.436;99.370;2023-02-12T15:55:14;27.40;99.90
12602;DHT22;30282;16.436;99.370;2023-02-12T15:57:48;27.20;99.90
12602;DHT22;30282;16.436;99.370;2023-02-12T16:00:30;27.00;99.90
12602;DHT22;30282;16.436;99.370;2023-02-12T16:03:01;26.90;99.90
12602;DHT22;30282;16.436;99.370;2023-02-12T16:05:30;26.90;99.90
12602;DHT22;30282;16.436;99.370;2023-02-12T16:08:00;26.90;99.90
12602;DHT22;30282;16.436;99.370;2023-02-12T16:10:29;26.90;99.90